Aviation Digital Data Service (ADDS)

Output produced by METARs form (0712 UTC 20 March 2019)
found at http://www.aviationweather.gov/metar/data/
 
Forecast for: LZPP (PIESTANY , SK)
Text: TAF LZPP 200500Z 2006/2015 36008KT CAVOK
Forecast period: 0600 to 1500 UTC 20 March 2019
Forecast type: FROM: standard forecast or significant change
Winds: from the N (360 degrees) at 9 MPH (8 knots; 4.1 m/s)
Visibility: 6 or more miles 10+ km)
Ceiling: unknown
Clouds: missing
Weather: NSW  (no significant weather)
Text: TEMPO 2010/2015 35012KT 9999 SCT045
Forecast period: 1000 to 1500 UTC 20 March 2019
Forecast type: TEMPORARY: The following changes expected for less than half the time period
Winds: from the N (350 degrees) at 14 MPH (12 knots; 6.2 m/s)
Visibility: 6 or more miles 10+ km)
Ceiling: at least 12,000 feet AGL
Clouds: scattered clouds at 4500 feet AGL
Weather: no significant weather forecast for this period